Terminal Aerodrome Forecast
Issued by NWS

Home | Current Version | Previous Version | Text Only | Print | Product List | Glossary On
Versions: 1 2 3 4 5 6 7 8 9 10 11 12
000
FTUS45 KSLC 191145
TAFPVU
TAF
KPVU 191145Z 1912/2012 15010KT P6SM SCT140 BKN200
     FM192100 22014G22KT P6SM BKN080 OVC160
     FM200000 28016G22KT P6SM VCSH BKN050 OVC100
     FM200600 31018G28KT 5SM -RASN BR BKN030 OVC050
     FM200800 31014G22KT 1SM -SN BR BKN008 OVC015=

USA.gov is the U.S. government's official web portal to all federal, state and local government web resources and services.